createdAt,value
2023-02-13T00:01:46.621Z,2.11
2023-02-13T00:04:14.901Z,2.03
2023-02-13T00:06:43.328Z,1.79
2023-02-13T00:09:13.281Z,1.92
2023-02-13T00:11:41.699Z,1.74
2023-02-13T00:14:10.113Z,1.93
2023-02-13T00:16:38.503Z,1.75
2023-02-13T00:19:07.107Z,1.81
2023-02-13T00:21:35.621Z,1.94
2023-02-13T00:24:04.022Z,1.98
2023-02-13T00:26:33.835Z,2.03
2023-02-13T00:29:02.205Z,2.08
2023-02-13T00:31:30.740Z,0.34
2023-02-13T00:33:59.251Z,1.77
2023-02-13T00:36:27.886Z,1.85
2023-02-13T00:38:56.724Z,2.00
2023-02-13T00:41:25.292Z,1.95
2023-02-13T00:43:56.188Z,1.80
2023-02-13T00:46:24.687Z,1.89
2023-02-13T00:48:53.010Z,1.90
2023-02-13T00:51:21.454Z,1.90
2023-02-13T00:53:50.155Z,1.90
2023-02-13T00:56:18.554Z,1.86
2023-02-13T00:58:47.212Z,1.86
2023-02-13T01:01:17.070Z,1.88
2023-02-13T01:03:45.530Z,1.74
2023-02-13T01:06:13.999Z,1.87
2023-02-13T01:08:42.426Z,1.83
2023-02-13T01:11:11.443Z,1.80
2023-02-13T01:13:39.789Z,1.75
2023-02-13T01:16:08.695Z,1.73
2023-02-13T01:18:38.743Z,1.64
2023-02-13T01:21:10.303Z,1.64
2023-02-13T01:23:39.734Z,1.50
2023-02-13T01:26:09.726Z,1.65
2023-02-13T01:28:38.229Z,1.64
2023-02-13T01:31:07.041Z,1.63
2023-02-13T01:33:36.402Z,1.60
2023-02-13T01:36:10.656Z,1.56
2023-02-13T01:38:39.270Z,1.34
2023-02-13T01:41:08.168Z,1.43
2023-02-13T01:43:51.479Z,1.40
2023-02-13T01:46:24.671Z,1.32
2023-02-13T01:48:56.059Z,1.29
2023-02-13T01:51:30.514Z,1.28
2023-02-13T01:54:03.737Z,1.30
2023-02-13T01:56:37.842Z,1.32
2023-02-13T01:59:11.594Z,1.34
2023-02-13T02:01:40.194Z,1.32
2023-02-13T02:04:14.968Z,1.12
2023-02-13T02:06:46.773Z,1.28
2023-02-13T02:09:18.845Z,1.13
2023-02-13T02:11:54.400Z,1.12
2023-02-13T02:14:23.069Z,1.08
2023-02-13T02:16:51.453Z,1.24
2023-02-13T02:19:34.292Z,1.24
2023-02-13T02:22:32.156Z,1.25
2023-02-13T02:25:44.656Z,1.30
2023-02-13T02:28:31.685Z,1.30
2023-02-13T02:31:31.877Z,1.26
2023-02-13T02:34:20.708Z,0.95
2023-02-13T02:37:21.230Z,1.16
2023-02-13T02:40:03.724Z,1.17
2023-02-13T02:42:45.296Z,1.25
2023-02-13T02:45:21.143Z,1.23
2023-02-13T02:48:13.336Z,1.20
2023-02-13T02:50:46.269Z,1.13
2023-02-13T02:53:28.148Z,1.16
2023-02-13T02:56:02.056Z,1.14
2023-02-13T02:58:54.418Z,1.12
2023-02-13T03:01:44.092Z,1.04
2023-02-13T03:04:51.295Z,0.91
2023-02-13T03:07:22.089Z,0.91
2023-02-13T03:10:14.791Z,0.99
2023-02-13T03:13:05.772Z,1.00
2023-02-13T03:15:36.114Z,0.97
2023-02-13T03:18:22.013Z,0.96
2023-02-13T03:21:13.613Z,0.94
2023-02-13T03:23:53.786Z,1.01
2023-02-13T03:26:50.598Z,1.03
2023-02-13T03:30:10.194Z,1.07
2023-02-13T03:32:47.542Z,1.08
2023-02-13T03:35:41.930Z,1.14
2023-02-13T03:38:16.103Z,1.11
2023-02-13T03:41:05.395Z,0.72
2023-02-13T03:43:41.577Z,1.10
2023-02-13T03:46:12.262Z,1.07
2023-02-13T03:49:00.764Z,1.06
2023-02-13T03:51:33.844Z,1.04
2023-02-13T03:54:06.732Z,0.98
2023-02-13T03:56:58.654Z,0.96
2023-02-13T03:59:31.396Z,0.80
2023-02-13T04:02:06.776Z,0.91
2023-02-13T04:04:45.236Z,0.84
2023-02-13T04:07:29.727Z,0.79
2023-02-13T04:10:00.596Z,0.69
2023-02-13T04:12:40.868Z,0.75
2023-02-13T04:15:16.341Z,0.35
2023-02-13T04:17:48.651Z,0.61
2023-02-13T04:20:17.442Z,0.61
2023-02-13T04:22:47.890Z,0.58
2023-02-13T04:25:18.286Z,0.60
2023-02-13T04:27:48.451Z,0.50
2023-02-13T04:30:17.497Z,0.60
2023-02-13T04:32:45.819Z,0.31
2023-02-13T04:35:14.939Z,0.57
2023-02-13T04:37:43.561Z,0.33
2023-02-13T04:40:12.861Z,0.56
2023-02-13T04:42:41.318Z,0.55
2023-02-13T04:45:12.068Z,0.56
2023-02-13T04:47:40.639Z,0.56
2023-02-13T04:50:09.756Z,0.57
2023-02-13T04:52:38.141Z,0.60
2023-02-13T04:55:07.382Z,0.57
2023-02-13T04:57:35.879Z,0.53
2023-02-13T05:00:05.421Z,0.52
2023-02-13T05:02:35.347Z,0.39
2023-02-13T05:05:04.048Z,0.16
2023-02-13T05:07:32.473Z,0.52
2023-02-13T05:10:00.853Z,0.51
2023-02-13T05:12:29.366Z,0.45
2023-02-13T05:14:58.314Z,0.52
2023-02-13T05:17:28.289Z,0.30
2023-02-13T05:19:59.321Z,0.36
2023-02-13T05:22:44.916Z,0.19
2023-02-13T05:25:13.586Z,0.43
2023-02-13T05:27:42.122Z,0.37
2023-02-13T05:30:11.440Z,0.48
2023-02-13T05:32:39.796Z,0.56
2023-02-13T05:35:10.315Z,0.48
2023-02-13T05:37:38.997Z,0.39
2023-02-13T05:40:08.685Z,0.49
2023-02-13T05:42:36.984Z,0.44
2023-02-13T05:45:05.737Z,0.45
2023-02-13T05:47:34.057Z,0.42
2023-02-13T05:50:02.457Z,0.36
2023-02-13T05:52:32.200Z,0.28
2023-02-13T05:55:00.937Z,0.27
2023-02-13T05:57:29.613Z,0.20
2023-02-13T05:59:58.343Z,0.12
2023-02-13T06:02:26.848Z,0.14
2023-02-13T06:04:55.315Z,0.26
2023-02-13T06:07:23.788Z,0.23
2023-02-13T06:09:53.536Z,0.21
2023-02-13T06:12:21.954Z,0.22
2023-02-13T06:14:50.694Z,0.01
2023-02-13T06:17:19.380Z,-0.09
2023-02-13T06:19:47.813Z,0.07
2023-02-13T06:22:16.435Z,-0.29
2023-02-13T06:24:44.910Z,0.08
2023-02-13T06:27:14.898Z,-0.05
2023-02-13T06:29:43.321Z,0.23
2023-02-13T06:32:11.627Z,0.19
2023-02-13T06:34:39.973Z,0.29
2023-02-13T06:37:08.429Z,-0.05
2023-02-13T06:39:36.805Z,0.28
2023-02-13T06:42:05.229Z,0.62
2023-02-13T06:44:35.187Z,0.75
2023-02-13T06:47:03.719Z,0.85
2023-02-13T06:49:32.054Z,1.01
2023-02-13T06:52:00.359Z,1.06
2023-02-13T06:54:44.713Z,0.83
2023-02-13T06:57:15.054Z,1.33
2023-02-13T06:59:45.048Z,1.43
2023-02-13T07:02:14.076Z,1.04
2023-02-13T07:04:42.481Z,1.61
2023-02-13T07:07:10.919Z,1.61
2023-02-13T07:09:40.248Z,1.77
2023-02-13T07:12:09.953Z,1.85
2023-02-13T07:14:38.398Z,1.91
2023-02-13T07:17:08.612Z,1.89
2023-02-13T07:19:36.971Z,2.05
2023-02-13T07:22:05.371Z,2.06
2023-02-13T07:24:35.732Z,2.14
2023-02-13T07:27:04.255Z,2.16
2023-02-13T07:29:33.232Z,2.25
2023-02-13T07:32:02.041Z,2.14
2023-02-13T07:34:31.869Z,2.35
2023-02-13T07:37:00.533Z,2.40
2023-02-13T07:39:28.866Z,2.48
2023-02-13T07:41:57.497Z,2.52
2023-02-13T07:44:25.880Z,2.16
2023-02-13T07:46:54.616Z,2.67
2023-02-13T07:49:22.888Z,2.73
2023-02-13T07:51:52.821Z,2.78
2023-02-13T07:54:21.413Z,2.86
2023-02-13T07:56:49.776Z,2.89
2023-02-13T07:59:18.175Z,2.96
2023-02-13T08:01:46.538Z,2.82
2023-02-13T08:04:15.032Z,2.86
2023-02-13T08:06:44.071Z,3.10
2023-02-13T08:09:39.554Z,3.16
2023-02-13T08:12:11.772Z,3.20
2023-02-13T08:14:40.047Z,3.31
2023-02-13T08:17:08.498Z,3.37
2023-02-13T08:19:37.208Z,3.42
2023-02-13T08:22:05.613Z,3.46
2023-02-13T08:24:35.706Z,3.50
2023-02-13T08:27:04.035Z,3.25
2023-02-13T08:29:32.367Z,3.37
2023-02-13T08:32:01.003Z,3.52
2023-02-13T08:34:29.650Z,3.73
2023-02-13T08:36:58.103Z,3.78
2023-02-13T08:39:26.613Z,3.81
2023-02-13T08:41:56.507Z,3.90
2023-02-13T08:44:25.340Z,3.98
2023-02-13T08:46:53.803Z,4.02
2023-02-13T08:49:23.589Z,4.06
2023-02-13T08:51:52.231Z,4.13
2023-02-13T08:54:20.884Z,4.15
2023-02-13T08:56:49.273Z,3.89
2023-02-13T08:59:19.406Z,4.12
2023-02-13T09:01:48.083Z,4.09
2023-02-13T09:04:18.234Z,4.00
2023-02-13T09:06:47.039Z,3.92
2023-02-13T09:09:16.192Z,3.98
2023-02-13T09:11:44.595Z,3.86
2023-02-13T09:14:12.883Z,3.99
2023-02-13T09:16:42.790Z,3.96
2023-02-13T09:19:11.086Z,4.00
2023-02-13T09:21:39.467Z,4.01
2023-02-13T09:24:09.292Z,3.98
2023-02-13T09:26:38.202Z,3.52
2023-02-13T09:29:06.515Z,3.87
2023-02-13T09:31:35.020Z,3.83
2023-02-13T09:34:04.884Z,3.71
2023-02-13T09:36:33.946Z,3.93
2023-02-13T09:39:02.341Z,3.66
2023-02-13T09:41:34.176Z,3.96
2023-02-13T09:44:06.357Z,3.91
2023-02-13T09:46:37.179Z,3.88
2023-02-13T09:49:09.883Z,4.00
2023-02-13T09:51:38.753Z,4.11
2023-02-13T09:54:09.146Z,4.16
2023-02-13T09:56:47.037Z,3.81
2023-02-13T09:59:32.364Z,4.24
2023-02-13T10:02:05.860Z,3.98
2023-02-13T10:04:47.222Z,4.31
2023-02-13T10:07:23.412Z,4.36
2023-02-13T10:10:02.579Z,4.31
2023-02-13T10:12:56.720Z,4.52
2023-02-13T10:15:34.190Z,4.54
2023-02-13T10:18:06.360Z,4.52
2023-02-13T10:20:41.159Z,4.69
2023-02-13T10:23:22.676Z,4.78
2023-02-13T10:25:57.706Z,4.95
2023-02-13T10:28:36.556Z,4.94
2023-02-13T10:31:08.698Z,5.19
2023-02-13T10:33:45.439Z,5.26
2023-02-13T10:36:20.430Z,4.89
2023-02-13T10:38:58.113Z,5.28
2023-02-13T10:41:35.873Z,4.76
2023-02-13T10:44:24.847Z,5.35
2023-02-13T10:47:01.817Z,5.56
2023-02-13T10:49:45.792Z,5.67
2023-02-13T10:52:20.289Z,5.64
2023-02-13T10:54:57.213Z,5.68
2023-02-13T10:57:34.718Z,5.72
2023-02-13T11:00:11.707Z,6.00
2023-02-13T11:02:41.572Z,5.90
2023-02-13T11:05:18.767Z,6.26
2023-02-13T11:07:50.169Z,6.24
2023-02-13T11:10:21.051Z,6.53
2023-02-13T11:12:50.476Z,6.48
2023-02-13T11:15:26.263Z,6.54
2023-02-13T11:17:57.449Z,6.63
2023-02-13T11:20:32.288Z,6.57
2023-02-13T11:23:22.896Z,6.76
2023-02-13T11:25:59.666Z,7.02
2023-02-13T11:28:30.774Z,7.09
2023-02-13T11:31:13.168Z,7.27
2023-02-13T11:33:42.414Z,7.31
2023-02-13T11:36:15.157Z,7.41
2023-02-13T11:38:45.343Z,7.39
2023-02-13T11:41:15.585Z,7.64
2023-02-13T11:43:48.972Z,7.78
2023-02-13T11:46:21.603Z,7.77
2023-02-13T11:49:02.012Z,7.95
2023-02-13T11:51:41.843Z,7.89
2023-02-13T11:54:25.900Z,7.85
2023-02-13T11:57:04.904Z,7.78
2023-02-13T11:59:41.265Z,8.05
2023-02-13T12:02:19.611Z,8.13
2023-02-13T12:04:49.616Z,8.23
2023-02-13T12:07:23.929Z,7.74
2023-02-13T12:10:02.082Z,8.08
2023-02-13T12:12:42.176Z,7.91
2023-02-13T12:15:20.466Z,8.16
2023-02-13T12:17:58.524Z,8.06
2023-02-13T12:20:29.244Z,8.30
2023-02-13T12:23:09.176Z,8.28
2023-02-13T12:26:15.506Z,8.39
2023-02-13T12:28:57.398Z,8.14
2023-02-13T12:31:43.737Z,8.20
2023-02-13T12:34:41.779Z,8.60
2023-02-13T12:37:25.032Z,8.54
2023-02-13T12:40:13.571Z,8.58
2023-02-13T12:42:54.208Z,8.49
2023-02-13T12:45:34.897Z,8.60
2023-02-13T12:48:18.889Z,8.55
2023-02-13T12:50:58.568Z,8.45
2023-02-13T12:53:55.251Z,8.62
2023-02-13T12:56:40.649Z,8.74
2023-02-13T12:59:22.606Z,8.80
2023-02-13T13:02:18.060Z,8.89
2023-02-13T13:05:00.914Z,8.79
2023-02-13T13:07:51.363Z,8.77
2023-02-13T13:10:44.770Z,8.71
2023-02-13T13:13:22.738Z,8.69
2023-02-13T13:16:02.223Z,8.71
2023-02-13T13:18:43.139Z,8.69
2023-02-13T13:21:19.662Z,7.32
2023-02-13T13:23:54.852Z,8.58
2023-02-13T13:26:32.258Z,8.56
2023-02-13T13:29:03.864Z,8.22
2023-02-13T13:31:37.239Z,8.48
2023-02-13T13:34:09.814Z,8.50
2023-02-13T13:36:46.546Z,8.33
2023-02-13T13:39:27.721Z,8.37
2023-02-13T13:42:08.456Z,8.20
2023-02-13T13:44:55.660Z,8.26
2023-02-13T13:47:42.298Z,8.14
2023-02-13T13:50:21.373Z,7.98
2023-02-13T13:53:08.613Z,7.72
2023-02-13T13:56:08.207Z,7.76
2023-02-13T13:58:43.109Z,7.73
2023-02-13T14:01:26.598Z,7.41
2023-02-13T14:03:58.715Z,7.71
2023-02-13T14:06:29.678Z,7.62
2023-02-13T14:09:20.537Z,7.42
2023-02-13T14:11:48.933Z,7.47
2023-02-13T14:14:53.934Z,7.44
2023-02-13T14:17:56.966Z,7.40
2023-02-13T14:20:37.128Z,7.40
2023-02-13T14:23:16.268Z,7.40
2023-02-13T14:25:45.649Z,7.42
2023-02-13T14:28:23.901Z,7.25
2023-02-13T14:30:56.820Z,7.18
2023-02-13T14:33:29.838Z,5.98
2023-02-13T14:36:05.917Z,7.21
2023-02-13T14:38:35.738Z,7.18
2023-02-13T14:41:04.292Z,7.06
2023-02-13T14:43:40.312Z,7.16
2023-02-13T14:46:22.607Z,7.12
2023-02-13T14:48:57.337Z,7.08
2023-02-13T14:51:34.842Z,6.80
2023-02-13T14:54:14.881Z,6.76
2023-02-13T14:56:46.492Z,6.94
2023-02-13T14:59:18.830Z,6.78
2023-02-13T15:01:52.989Z,6.90
2023-02-13T15:04:27.566Z,6.89
2023-02-13T15:06:59.431Z,6.71
2023-02-13T15:09:37.746Z,6.81
2023-02-13T15:12:25.016Z,6.75
2023-02-13T15:14:53.474Z,6.46
2023-02-13T15:17:24.886Z,6.64
2023-02-13T15:19:55.191Z,6.58
2023-02-13T15:22:32.647Z,6.35
2023-02-13T15:25:01.639Z,6.33
2023-02-13T15:27:33.001Z,6.45
2023-02-13T15:30:04.362Z,6.41
2023-02-13T15:32:37.082Z,6.36
2023-02-13T15:35:23.182Z,6.30
2023-02-13T15:37:53.295Z,6.23
2023-02-13T15:40:27.789Z,6.10
2023-02-13T15:42:57.584Z,5.80
2023-02-13T15:45:28.428Z,6.19
2023-02-13T15:47:58.202Z,6.19
2023-02-13T15:50:31.833Z,6.15
2023-02-13T15:53:04.321Z,6.13
2023-02-13T15:55:36.415Z,6.13
2023-02-13T15:58:05.493Z,6.11
2023-02-13T16:00:35.693Z,5.91
2023-02-13T16:03:07.376Z,6.06
2023-02-13T16:05:41.708Z,5.99
2023-02-13T16:08:33.170Z,5.92
2023-02-13T16:11:25.213Z,5.76
2023-02-13T16:14:02.745Z,5.82
2023-02-13T16:16:35.150Z,5.71
2023-02-13T16:19:03.931Z,5.77
2023-02-13T16:21:34.569Z,5.70
2023-02-13T16:24:08.299Z,5.53
2023-02-13T16:26:39.384Z,5.37
2023-02-13T16:29:12.284Z,5.41
2023-02-13T16:31:41.745Z,4.93
2023-02-13T16:34:24.642Z,5.36
2023-02-13T16:36:53.571Z,5.27
2023-02-13T16:39:28.157Z,5.23
2023-02-13T16:41:56.896Z,4.99
2023-02-13T16:44:28.005Z,5.05
2023-02-13T16:46:58.410Z,4.66
2023-02-13T16:49:30.171Z,4.87
2023-02-13T16:52:01.883Z,4.74
2023-02-13T16:54:35.835Z,4.84
2023-02-13T16:57:07.111Z,4.80
2023-02-13T16:59:52.925Z,4.48
2023-02-13T17:02:23.994Z,4.74
2023-02-13T17:04:55.186Z,4.51
2023-02-13T17:07:26.270Z,4.76
2023-02-13T17:09:58.344Z,4.73
2023-02-13T17:12:28.244Z,4.73
2023-02-13T17:14:58.688Z,4.32
2023-02-13T17:17:29.801Z,4.66
2023-02-13T17:19:58.896Z,4.55
2023-02-13T17:22:37.242Z,4.46
2023-02-13T17:25:08.962Z,4.44
2023-02-13T17:27:37.807Z,4.21
2023-02-13T17:30:07.292Z,4.29
2023-02-13T17:32:35.857Z,4.23
2023-02-13T17:35:05.368Z,4.15
2023-02-13T17:37:34.568Z,4.06
2023-02-13T17:40:02.915Z,4.00
2023-02-13T17:42:33.037Z,3.99
2023-02-13T17:45:01.709Z,3.96
2023-02-13T17:47:31.328Z,3.82
2023-02-13T17:50:09.408Z,4.00
2023-02-13T17:52:39.366Z,3.82
2023-02-13T17:55:09.257Z,3.69
2023-02-13T17:57:39.331Z,3.71
2023-02-13T18:00:09.218Z,3.63
2023-02-13T18:02:37.620Z,3.61
2023-02-13T18:05:06.731Z,3.58
2023-02-13T18:07:35.088Z,3.55
2023-02-13T18:10:03.430Z,3.29
2023-02-13T18:12:31.860Z,3.47
2023-02-13T18:15:01.747Z,3.43
2023-02-13T18:17:30.996Z,3.39
2023-02-13T18:19:59.491Z,3.26
2023-02-13T18:22:28.073Z,2.72
2023-02-13T18:24:56.668Z,3.21
2023-02-13T18:27:27.014Z,3.18
2023-02-13T18:29:56.455Z,3.13
2023-02-13T18:32:26.620Z,2.82
2023-02-13T18:34:55.218Z,3.05
2023-02-13T18:37:23.983Z,3.02
2023-02-13T18:39:52.298Z,3.02
2023-02-13T18:42:21.013Z,2.96
2023-02-13T18:44:49.355Z,2.89
2023-02-13T18:47:18.837Z,2.91
2023-02-13T18:49:48.563Z,2.88
2023-02-13T18:52:17.953Z,2.86
2023-02-13T18:54:46.277Z,2.82
2023-02-13T18:57:15.338Z,2.80
2023-02-13T18:59:43.818Z,2.72
2023-02-13T19:02:12.256Z,2.69
2023-02-13T19:04:41.895Z,2.69
2023-02-13T19:07:12.142Z,2.68
2023-02-13T19:09:41.332Z,2.91
2023-02-13T19:12:12.013Z,2.95
2023-02-13T19:14:41.937Z,2.83
2023-02-13T19:17:10.628Z,2.76
2023-02-13T19:19:40.429Z,2.73
2023-02-13T19:22:10.331Z,2.69
2023-02-13T19:24:42.094Z,2.67
2023-02-13T19:27:11.625Z,2.63
2023-02-13T19:29:40.637Z,2.62
2023-02-13T19:32:09.068Z,2.36
2023-02-13T19:34:37.712Z,2.43
2023-02-13T19:37:07.773Z,2.40
2023-02-13T19:39:38.165Z,2.52
2023-02-13T19:42:10.227Z,2.01
2023-02-13T19:44:39.484Z,2.39
2023-02-13T19:47:08.614Z,2.12
2023-02-13T19:49:37.550Z,2.34
2023-02-13T19:52:06.120Z,2.32
2023-02-13T19:54:35.215Z,2.34
2023-02-13T19:57:08.053Z,2.34
2023-02-13T19:59:39.601Z,2.33
2023-02-13T20:02:09.320Z,2.31
2023-02-13T20:04:39.494Z,2.29
2023-02-13T20:07:10.095Z,2.24
2023-02-13T20:09:40.012Z,2.24
2023-02-13T20:12:08.550Z,2.14
2023-02-13T20:14:39.215Z,2.23
2023-02-13T20:17:09.189Z,2.24
2023-02-13T20:19:38.044Z,2.25
2023-02-13T20:22:07.919Z,2.17
2023-02-13T20:24:36.565Z,2.16
2023-02-13T20:27:05.424Z,1.88
2023-02-13T20:29:39.694Z,2.02
2023-02-13T20:32:09.497Z,2.03
2023-02-13T20:34:58.194Z,1.91
2023-02-13T20:37:27.662Z,1.93
2023-02-13T20:39:56.723Z,1.75
2023-02-13T20:42:26.114Z,1.83
2023-02-13T20:44:56.378Z,1.83
2023-02-13T20:47:25.482Z,1.77
2023-02-13T20:49:54.470Z,1.78
2023-02-13T20:52:23.284Z,1.78
2023-02-13T20:54:52.098Z,1.80
2023-02-13T20:57:20.582Z,1.58
2023-02-13T20:59:51.024Z,1.75
2023-02-13T21:02:21.279Z,1.62
2023-02-13T21:04:49.544Z,1.72
2023-02-13T21:07:18.129Z,1.74
2023-02-13T21:09:46.584Z,1.72
2023-02-13T21:12:15.140Z,1.73
2023-02-13T21:14:43.978Z,1.33
2023-02-13T21:17:12.841Z,1.72
2023-02-13T21:19:42.593Z,1.69
2023-02-13T21:22:13.569Z,1.65
2023-02-13T21:24:43.777Z,1.06
2023-02-13T21:27:12.376Z,1.62
2023-02-13T21:29:40.883Z,1.63
2023-02-13T21:32:09.298Z,1.60
2023-02-13T21:34:37.655Z,1.55
2023-02-13T21:37:07.829Z,1.29
2023-02-13T21:39:37.460Z,0.98
2023-02-13T21:42:05.978Z,1.50
2023-02-13T21:44:34.566Z,1.48
2023-02-13T21:47:04.504Z,1.49
2023-02-13T21:49:35.367Z,1.56
2023-02-13T21:52:03.697Z,1.57
2023-02-13T21:54:33.420Z,1.57
2023-02-13T21:57:01.786Z,1.57
2023-02-13T21:59:30.203Z,1.51
2023-02-13T22:01:59.724Z,1.33
2023-02-13T22:04:28.231Z,1.49
2023-02-13T22:06:56.617Z,1.50
2023-02-13T22:09:27.069Z,1.44
2023-02-13T22:11:56.949Z,1.44
2023-02-13T22:14:25.294Z,1.43
2023-02-13T22:16:53.962Z,1.42
2023-02-13T22:19:22.403Z,1.43
2023-02-13T22:21:51.043Z,1.41
2023-02-13T22:24:19.331Z,1.42
2023-02-13T22:26:47.787Z,1.36
2023-02-13T22:29:21.980Z,1.01
2023-02-13T22:31:50.885Z,1.34
2023-02-13T22:34:20.502Z,0.68
2023-02-13T22:36:48.898Z,1.34
2023-02-13T22:39:17.210Z,1.31
2023-02-13T22:41:45.956Z,1.30
2023-02-13T22:44:14.335Z,1.26
2023-02-13T22:46:45.501Z,1.24
2023-02-13T22:49:13.748Z,1.00
2023-02-13T22:51:42.191Z,1.22
2023-02-13T22:54:12.128Z,1.33
2023-02-13T22:56:40.389Z,1.38
2023-02-13T22:59:08.825Z,1.38
2023-02-13T23:01:37.933Z,1.39
2023-02-13T23:04:07.729Z,1.36
2023-02-13T23:06:36.162Z,1.37
2023-02-13T23:09:04.576Z,1.37
2023-02-13T23:11:50.340Z,1.37
2023-02-13T23:14:19.131Z,1.36
2023-02-13T23:17:04.537Z,1.36
2023-02-13T23:19:34.294Z,1.18
2023-02-13T23:22:02.732Z,1.33
2023-02-13T23:24:31.450Z,1.37
2023-02-13T23:27:00.032Z,1.28
2023-02-13T23:29:28.755Z,1.21
2023-02-13T23:31:57.485Z,1.11
2023-02-13T23:34:25.834Z,1.25
2023-02-13T23:36:55.685Z,1.25
2023-02-13T23:39:24.419Z,1.27
2023-02-13T23:41:52.814Z,1.26
2023-02-13T23:44:21.409Z,1.14
2023-02-13T23:46:49.833Z,1.21
2023-02-13T23:49:18.363Z,1.24
2023-02-13T23:51:46.779Z,1.11
2023-02-13T23:54:21.546Z,1.20
2023-02-13T23:56:51.367Z,1.10
2023-02-13T23:59:20.677Z,1.07
